sensor_id;sensor_type;location;lat;lon;timestamp;P1;durP1;ratioP1;P2;durP2;ratioP2
43626;SDS011;29217;52.586;13.442;2022-11-20T00:00:14;21.65;;;9.70;;
43626;SDS011;29217;52.586;13.442;2022-11-20T00:02:40;22.73;;;9.60;;
43626;SDS011;29217;52.586;13.442;2022-11-20T00:05:06;16.02;;;8.10;;
43626;SDS011;29217;52.586;13.442;2022-11-20T00:07:32;23.88;;;10.35;;
43626;SDS011;29217;52.586;13.442;2022-11-20T00:09:58;20.40;;;9.73;;
43626;SDS011;29217;52.586;13.442;2022-11-20T00:12:24;19.60;;;9.63;;
43626;SDS011;29217;52.586;13.442;2022-11-20T00:14:50;21.25;;;9.82;;
43626;SDS011;29217;52.586;13.442;2022-11-20T00:17:16;22.35;;;9.85;;
43626;SDS011;29217;52.586;13.442;2022-11-20T00:19:42;17.38;;;9.90;;
43626;SDS011;29217;52.586;13.442;2022-11-20T00:22:08;19.73;;;9.82;;
43626;SDS011;29217;52.586;13.442;2022-11-20T00:24:34;22.35;;;10.18;;
43626;SDS011;29217;52.586;13.442;2022-11-20T00:27:00;22.23;;;10.02;;
43626;SDS011;29217;52.586;13.442;2022-11-20T00:29:26;18.98;;;9.32;;
43626;SDS011;29217;52.586;13.442;2022-11-20T00:31:52;16.80;;;8.50;;
43626;SDS011;29217;52.586;13.442;2022-11-20T00:34:17;20.40;;;8.75;;
43626;SDS011;29217;52.586;13.442;2022-11-20T00:36:43;18.17;;;8.75;;
43626;SDS011;29217;52.586;13.442;2022-11-20T00:39:09;17.92;;;9.93;;
43626;SDS011;29217;52.586;13.442;2022-11-20T00:41:35;18.80;;;8.38;;
43626;SDS011;29217;52.586;13.442;2022-11-20T00:44:01;16.85;;;8.70;;
43626;SDS011;29217;52.586;13.442;2022-11-20T00:46:27;19.15;;;8.90;;
43626;SDS011;29217;52.586;13.442;2022-11-20T00:48:54;17.80;;;8.57;;
43626;SDS011;29217;52.586;13.442;2022-11-20T00:51:21;21.58;;;8.90;;
43626;SDS011;29217;52.586;13.442;2022-11-20T00:53:47;22.10;;;9.88;;
43626;SDS011;29217;52.586;13.442;2022-11-20T00:56:15;25.23;;;9.85;;
43626;SDS011;29217;52.586;13.442;2022-11-20T00:58:43;23.13;;;9.15;;
43626;SDS011;29217;52.586;13.442;2022-11-20T01:01:10;16.60;;;8.32;;
43626;SDS011;29217;52.586;13.442;2022-11-20T01:03:37;28.33;;;9.35;;
43626;SDS011;29217;52.586;13.442;2022-11-20T01:06:04;20.25;;;8.52;;
43626;SDS011;29217;52.586;13.442;2022-11-20T01:08:31;17.23;;;8.93;;
43626;SDS011;29217;52.586;13.442;2022-11-20T01:11:01;18.92;;;8.63;;
43626;SDS011;29217;52.586;13.442;2022-11-20T01:13:28;18.15;;;8.23;;
43626;SDS011;29217;52.586;13.442;2022-11-20T01:16:04;19.70;;;9.25;;
43626;SDS011;29217;52.586;13.442;2022-11-20T01:18:31;17.95;;;9.05;;
43626;SDS011;29217;52.586;13.442;2022-11-20T01:21:01;18.63;;;8.32;;
43626;SDS011;29217;52.586;13.442;2022-11-20T01:23:29;20.40;;;9.93;;
43626;SDS011;29217;52.586;13.442;2022-11-20T01:25:55;20.40;;;8.60;;
43626;SDS011;29217;52.586;13.442;2022-11-20T01:28:21;16.30;;;7.72;;
43626;SDS011;29217;52.586;13.442;2022-11-20T01:30:47;15.70;;;8.27;;
43626;SDS011;29217;52.586;13.442;2022-11-20T01:33:13;17.55;;;8.43;;
43626;SDS011;29217;52.586;13.442;2022-11-20T01:35:39;17.55;;;8.40;;
43626;SDS011;29217;52.586;13.442;2022-11-20T01:38:05;19.52;;;8.65;;
43626;SDS011;29217;52.586;13.442;2022-11-20T01:40:31;17.17;;;8.93;;
43626;SDS011;29217;52.586;13.442;2022-11-20T01:43:12;18.08;;;8.05;;
43626;SDS011;29217;52.586;13.442;2022-11-20T01:48:14;18.27;;;8.50;;
43626;SDS011;29217;52.586;13.442;2022-11-20T01:50:40;19.50;;;8.93;;
43626;SDS011;29217;52.586;13.442;2022-11-20T01:53:08;18.70;;;8.73;;
43626;SDS011;29217;52.586;13.442;2022-11-20T01:55:36;18.88;;;8.23;;
43626;SDS011;29217;52.586;13.442;2022-11-20T01:58:03;18.30;;;8.68;;
43626;SDS011;29217;52.586;13.442;2022-11-20T02:00:29;16.65;;;8.55;;
43626;SDS011;29217;52.586;13.442;2022-11-20T02:02:57;20.77;;;9.05;;
43626;SDS011;29217;52.586;13.442;2022-11-20T02:05:36;18.02;;;8.68;;
43626;SDS011;29217;52.586;13.442;2022-11-20T02:08:04;20.83;;;8.23;;
43626;SDS011;29217;52.586;13.442;2022-11-20T02:10:31;28.90;;;8.80;;
43626;SDS011;29217;52.586;13.442;2022-11-20T02:12:58;22.50;;;8.55;;
43626;SDS011;29217;52.586;13.442;2022-11-20T02:15:43;17.80;;;8.02;;
43626;SDS011;29217;52.586;13.442;2022-11-20T02:18:10;17.73;;;8.60;;
43626;SDS011;29217;52.586;13.442;2022-11-20T02:20:37;16.15;;;8.02;;
43626;SDS011;29217;52.586;13.442;2022-11-20T02:25:59;16.55;;;8.88;;
43626;SDS011;29217;52.586;13.442;2022-11-20T02:28:27;18.63;;;9.13;;
43626;SDS011;29217;52.586;13.442;2022-11-20T02:30:53;17.30;;;8.48;;
43626;SDS011;29217;52.586;13.442;2022-11-20T02:33:19;17.55;;;9.38;;
43626;SDS011;29217;52.586;13.442;2022-11-20T02:35:45;19.83;;;9.15;;
43626;SDS011;29217;52.586;13.442;2022-11-20T02:38:12;18.75;;;8.38;;
43626;SDS011;29217;52.586;13.442;2022-11-20T02:40:38;19.35;;;8.98;;
43626;SDS011;29217;52.586;13.442;2022-11-20T02:43:04;16.90;;;8.45;;
43626;SDS011;29217;52.586;13.442;2022-11-20T02:45:30;18.00;;;8.70;;
43626;SDS011;29217;52.586;13.442;2022-11-20T02:47:56;18.95;;;9.60;;
43626;SDS011;29217;52.586;13.442;2022-11-20T02:50:22;16.33;;;8.02;;
43626;SDS011;29217;52.586;13.442;2022-11-20T02:52:48;20.02;;;9.07;;
43626;SDS011;29217;52.586;13.442;2022-11-20T02:55:14;20.15;;;9.55;;
43626;SDS011;29217;52.586;13.442;2022-11-20T02:57:40;18.20;;;8.00;;
43626;SDS011;29217;52.586;13.442;2022-11-20T03:00:06;17.67;;;9.07;;
43626;SDS011;29217;52.586;13.442;2022-11-20T03:02:33;17.75;;;9.10;;
43626;SDS011;29217;52.586;13.442;2022-11-20T03:04:59;19.13;;;9.52;;
43626;SDS011;29217;52.586;13.442;2022-11-20T03:07:25;23.02;;;10.50;;
43626;SDS011;29217;52.586;13.442;2022-11-20T03:09:51;15.13;;;8.93;;
43626;SDS011;29217;52.586;13.442;2022-11-20T03:12:16;18.83;;;8.95;;
43626;SDS011;29217;52.586;13.442;2022-11-20T03:14:42;15.43;;;8.07;;
43626;SDS011;29217;52.586;13.442;2022-11-20T03:17:08;19.55;;;10.20;;
43626;SDS011;29217;52.586;13.442;2022-11-20T03:19:34;17.52;;;8.85;;
43626;SDS011;29217;52.586;13.442;2022-11-20T03:22:00;22.77;;;9.65;;
43626;SDS011;29217;52.586;13.442;2022-11-20T03:24:26;21.17;;;10.40;;
43626;SDS011;29217;52.586;13.442;2022-11-20T03:26:52;19.95;;;9.25;;
43626;SDS011;29217;52.586;13.442;2022-11-20T03:29:18;19.60;;;9.48;;
43626;SDS011;29217;52.586;13.442;2022-11-20T03:31:44;21.60;;;10.50;;
43626;SDS011;29217;52.586;13.442;2022-11-20T03:34:11;20.08;;;9.73;;
43626;SDS011;29217;52.586;13.442;2022-11-20T03:36:40;20.08;;;9.68;;
43626;SDS011;29217;52.586;13.442;2022-11-20T03:39:07;20.35;;;9.57;;
43626;SDS011;29217;52.586;13.442;2022-11-20T03:41:37;19.40;;;9.70;;
43626;SDS011;29217;52.586;13.442;2022-11-20T03:44:05;20.23;;;9.10;;
43626;SDS011;29217;52.586;13.442;2022-11-20T03:46:31;19.27;;;8.85;;
43626;SDS011;29217;52.586;13.442;2022-11-20T03:48:57;19.17;;;10.02;;
43626;SDS011;29217;52.586;13.442;2022-11-20T03:51:25;19.42;;;9.57;;
43626;SDS011;29217;52.586;13.442;2022-11-20T03:53:52;18.77;;;9.10;;
43626;SDS011;29217;52.586;13.442;2022-11-20T03:56:20;19.77;;;7.82;;
43626;SDS011;29217;52.586;13.442;2022-11-20T03:58:46;21.20;;;9.55;;
43626;SDS011;29217;52.586;13.442;2022-11-20T04:01:19;20.48;;;9.65;;
43626;SDS011;29217;52.586;13.442;2022-11-20T04:03:46;19.83;;;8.75;;
43626;SDS011;29217;52.586;13.442;2022-11-20T04:06:16;19.73;;;9.00;;
43626;SDS011;29217;52.586;13.442;2022-11-20T04:08:43;19.23;;;8.80;;
43626;SDS011;29217;52.586;13.442;2022-11-20T04:11:10;19.98;;;9.35;;
43626;SDS011;29217;52.586;13.442;2022-11-20T04:13:36;18.27;;;9.63;;
43626;SDS011;29217;52.586;13.442;2022-11-20T04:16:02;16.13;;;8.98;;
43626;SDS011;29217;52.586;13.442;2022-11-20T04:18:28;20.75;;;9.95;;
43626;SDS011;29217;52.586;13.442;2022-11-20T04:20:55;18.30;;;9.65;;
43626;SDS011;29217;52.586;13.442;2022-11-20T04:23:22;26.10;;;9.40;;
43626;SDS011;29217;52.586;13.442;2022-11-20T04:25:48;19.65;;;9.52;;
43626;SDS011;29217;52.586;13.442;2022-11-20T04:28:13;21.83;;;10.07;;
43626;SDS011;29217;52.586;13.442;2022-11-20T04:30:39;20.10;;;9.60;;
43626;SDS011;29217;52.586;13.442;2022-11-20T04:33:06;20.85;;;9.35;;
43626;SDS011;29217;52.586;13.442;2022-11-20T04:35:35;20.55;;;9.85;;
43626;SDS011;29217;52.586;13.442;2022-11-20T04:38:01;21.60;;;9.73;;
43626;SDS011;29217;52.586;13.442;2022-11-20T04:40:27;20.35;;;10.27;;
43626;SDS011;29217;52.586;13.442;2022-11-20T04:42:53;25.02;;;10.25;;
43626;SDS011;29217;52.586;13.442;2022-11-20T04:45:19;20.77;;;9.27;;
43626;SDS011;29217;52.586;13.442;2022-11-20T04:47:45;22.48;;;10.75;;
43626;SDS011;29217;52.586;13.442;2022-11-20T04:50:11;24.33;;;9.52;;
43626;SDS011;29217;52.586;13.442;2022-11-20T04:52:37;21.40;;;9.82;;
43626;SDS011;29217;52.586;13.442;2022-11-20T04:55:03;22.48;;;9.95;;
43626;SDS011;29217;52.586;13.442;2022-11-20T04:57:29;22.08;;;10.02;;
43626;SDS011;29217;52.586;13.442;2022-11-20T04:59:56;19.20;;;9.10;;
43626;SDS011;29217;52.586;13.442;2022-11-20T05:02:21;24.52;;;9.95;;
43626;SDS011;29217;52.586;13.442;2022-11-20T05:04:47;26.92;;;10.43;;
43626;SDS011;29217;52.586;13.442;2022-11-20T05:07:14;22.90;;;8.80;;
43626;SDS011;29217;52.586;13.442;2022-11-20T05:09:40;21.73;;;9.73;;
43626;SDS011;29217;52.586;13.442;2022-11-20T05:12:07;26.25;;;10.45;;
43626;SDS011;29217;52.586;13.442;2022-11-20T05:14:33;20.27;;;9.68;;
43626;SDS011;29217;52.586;13.442;2022-11-20T05:16:59;24.13;;;10.30;;
43626;SDS011;29217;52.586;13.442;2022-11-20T05:19:25;20.63;;;10.20;;
43626;SDS011;29217;52.586;13.442;2022-11-20T05:21:51;21.25;;;9.70;;
43626;SDS011;29217;52.586;13.442;2022-11-20T05:24:17;18.63;;;9.07;;
43626;SDS011;29217;52.586;13.442;2022-11-20T05:26:43;18.95;;;9.35;;
43626;SDS011;29217;52.586;13.442;2022-11-20T05:29:10;25.10;;;9.50;;
43626;SDS011;29217;52.586;13.442;2022-11-20T05:31:38;20.23;;;9.48;;
43626;SDS011;29217;52.586;13.442;2022-11-20T05:34:04;21.73;;;9.65;;
43626;SDS011;29217;52.586;13.442;2022-11-20T05:36:30;20.02;;;8.77;;
43626;SDS011;29217;52.586;13.442;2022-11-20T05:38:56;19.95;;;9.65;;
43626;SDS011;29217;52.586;13.442;2022-11-20T05:41:22;18.42;;;9.52;;
43626;SDS011;29217;52.586;13.442;2022-11-20T05:43:48;21.60;;;9.73;;
43626;SDS011;29217;52.586;13.442;2022-11-20T05:46:15;18.42;;;8.77;;
43626;SDS011;29217;52.586;13.442;2022-11-20T05:48:42;18.98;;;8.27;;
43626;SDS011;29217;52.586;13.442;2022-11-20T05:51:09;24.13;;;9.38;;
43626;SDS011;29217;52.586;13.442;2022-11-20T05:53:35;17.60;;;8.90;;
43626;SDS011;29217;52.586;13.442;2022-11-20T05:56:03;21.58;;;9.90;;
43626;SDS011;29217;52.586;13.442;2022-11-20T05:58:29;21.38;;;9.07;;
43626;SDS011;29217;52.586;13.442;2022-11-20T06:01:03;21.73;;;10.13;;
43626;SDS011;29217;52.586;13.442;2022-11-20T06:03:29;18.42;;;8.95;;
43626;SDS011;29217;52.586;13.442;2022-11-20T06:05:55;17.45;;;8.52;;
43626;SDS011;29217;52.586;13.442;2022-11-20T06:08:20;21.90;;;9.85;;
43626;SDS011;29217;52.586;13.442;2022-11-20T06:10:46;25.00;;;10.15;;
43626;SDS011;29217;52.586;13.442;2022-11-20T06:13:12;20.90;;;9.80;;
43626;SDS011;29217;52.586;13.442;2022-11-20T06:15:38;18.15;;;8.65;;
43626;SDS011;29217;52.586;13.442;2022-11-20T06:18:04;25.40;;;10.60;;
43626;SDS011;29217;52.586;13.442;2022-11-20T06:20:30;17.77;;;8.52;;
43626;SDS011;29217;52.586;13.442;2022-11-20T06:22:56;18.27;;;9.40;;
43626;SDS011;29217;52.586;13.442;2022-11-20T06:25:22;19.45;;;9.50;;
43626;SDS011;29217;52.586;13.442;2022-11-20T06:27:48;17.65;;;9.18;;
43626;SDS011;29217;52.586;13.442;2022-11-20T06:30:14;18.55;;;9.30;;
43626;SDS011;29217;52.586;13.442;2022-11-20T06:32:40;16.73;;;8.30;;
43626;SDS011;29217;52.586;13.442;2022-11-20T06:35:06;23.35;;;10.32;;
43626;SDS011;29217;52.586;13.442;2022-11-20T06:37:32;25.23;;;9.93;;
43626;SDS011;29217;52.586;13.442;2022-11-20T06:39:58;20.33;;;10.13;;
43626;SDS011;29217;52.586;13.442;2022-11-20T06:42:24;24.70;;;10.05;;
43626;SDS011;29217;52.586;13.442;2022-11-20T06:44:50;20.00;;;10.32;;
43626;SDS011;29217;52.586;13.442;2022-11-20T06:47:16;20.33;;;8.85;;
43626;SDS011;29217;52.586;13.442;2022-11-20T06:49:42;21.88;;;10.10;;
43626;SDS011;29217;52.586;13.442;2022-11-20T06:52:08;19.73;;;9.60;;
43626;SDS011;29217;52.586;13.442;2022-11-20T06:54:34;22.25;;;10.77;;
43626;SDS011;29217;52.586;13.442;2022-11-20T06:57:00;23.35;;;10.20;;
43626;SDS011;29217;52.586;13.442;2022-11-20T06:59:26;23.83;;;10.45;;
43626;SDS011;29217;52.586;13.442;2022-11-20T07:01:52;26.83;;;10.07;;
43626;SDS011;29217;52.586;13.442;2022-11-20T07:04:18;18.58;;;9.18;;
43626;SDS011;29217;52.586;13.442;2022-11-20T07:06:44;20.10;;;9.77;;
43626;SDS011;29217;52.586;13.442;2022-11-20T07:09:10;19.45;;;10.13;;
43626;SDS011;29217;52.586;13.442;2022-11-20T07:11:36;19.15;;;10.20;;
43626;SDS011;29217;52.586;13.442;2022-11-20T07:14:02;25.00;;;11.77;;
43626;SDS011;29217;52.586;13.442;2022-11-20T07:16:28;37.03;;;16.73;;
43626;SDS011;29217;52.586;13.442;2022-11-20T07:18:54;39.55;;;17.90;;
43626;SDS011;29217;52.586;13.442;2022-11-20T07:21:20;30.70;;;13.80;;
43626;SDS011;29217;52.586;13.442;2022-11-20T07:23:46;39.17;;;17.67;;
43626;SDS011;29217;52.586;13.442;2022-11-20T07:26:12;23.75;;;12.18;;
43626;SDS011;29217;52.586;13.442;2022-11-20T07:28:38;29.27;;;12.30;;
43626;SDS011;29217;52.586;13.442;2022-11-20T07:31:05;18.00;;;9.50;;
43626;SDS011;29217;52.586;13.442;2022-11-20T07:33:32;19.48;;;9.98;;
43626;SDS011;29217;52.586;13.442;2022-11-20T07:35:58;18.95;;;9.52;;
43626;SDS011;29217;52.586;13.442;2022-11-20T07:38:25;17.73;;;8.82;;
43626;SDS011;29217;52.586;13.442;2022-11-20T07:40:54;34.72;;;16.98;;
43626;SDS011;29217;52.586;13.442;2022-11-20T07:43:21;34.45;;;16.10;;
43626;SDS011;29217;52.586;13.442;2022-11-20T07:45:47;23.58;;;11.10;;
43626;SDS011;29217;52.586;13.442;2022-11-20T07:48:13;17.95;;;9.27;;
43626;SDS011;29217;52.586;13.442;2022-11-20T07:50:39;19.20;;;9.52;;
43626;SDS011;29217;52.586;13.442;2022-11-20T07:53:05;24.55;;;11.57;;
43626;SDS011;29217;52.586;13.442;2022-11-20T07:55:31;23.52;;;12.20;;
43626;SDS011;29217;52.586;13.442;2022-11-20T07:57:57;22.40;;;11.45;;
43626;SDS011;29217;52.586;13.442;2022-11-20T08:00:23;25.60;;;12.05;;
43626;SDS011;29217;52.586;13.442;2022-11-20T08:02:49;22.35;;;10.70;;
43626;SDS011;29217;52.586;13.442;2022-11-20T08:05:15;21.05;;;10.75;;
43626;SDS011;29217;52.586;13.442;2022-11-20T08:07:42;22.67;;;11.23;;
43626;SDS011;29217;52.586;13.442;2022-11-20T08:10:09;25.08;;;10.73;;
43626;SDS011;29217;52.586;13.442;2022-11-20T08:12:36;36.63;;;17.75;;
43626;SDS011;29217;52.586;13.442;2022-11-20T08:15:20;20.65;;;11.13;;
43626;SDS011;29217;52.586;13.442;2022-11-20T08:17:46;26.35;;;11.90;;
43626;SDS011;29217;52.586;13.442;2022-11-20T08:20:12;23.40;;;12.93;;
43626;SDS011;29217;52.586;13.442;2022-11-20T08:22:38;34.65;;;15.65;;
43626;SDS011;29217;52.586;13.442;2022-11-20T08:25:04;30.80;;;15.13;;
43626;SDS011;29217;52.586;13.442;2022-11-20T08:27:31;25.95;;;11.90;;
43626;SDS011;29217;52.586;13.442;2022-11-20T08:29:57;29.45;;;13.05;;
43626;SDS011;29217;52.586;13.442;2022-11-20T08:32:23;27.20;;;11.45;;
43626;SDS011;29217;52.586;13.442;2022-11-20T08:34:49;25.85;;;11.23;;
43626;SDS011;29217;52.586;13.442;2022-11-20T08:37:15;20.00;;;8.98;;
43626;SDS011;29217;52.586;13.442;2022-11-20T08:39:41;22.75;;;10.02;;
43626;SDS011;29217;52.586;13.442;2022-11-20T08:42:07;20.88;;;9.80;;
43626;SDS011;29217;52.586;13.442;2022-11-20T08:44:33;23.63;;;10.20;;
43626;SDS011;29217;52.586;13.442;2022-11-20T08:47:00;21.25;;;10.23;;
43626;SDS011;29217;52.586;13.442;2022-11-20T08:49:26;20.83;;;10.13;;
43626;SDS011;29217;52.586;13.442;2022-11-20T08:51:52;21.13;;;9.88;;
43626;SDS011;29217;52.586;13.442;2022-11-20T08:54:20;20.83;;;10.27;;
43626;SDS011;29217;52.586;13.442;2022-11-20T08:56:47;25.10;;;11.32;;
43626;SDS011;29217;52.586;13.442;2022-11-20T08:59:13;25.33;;;11.10;;
43626;SDS011;29217;52.586;13.442;2022-11-20T09:01:39;26.33;;;12.82;;
43626;SDS011;29217;52.586;13.442;2022-11-20T09:04:05;19.83;;;9.60;;
43626;SDS011;29217;52.586;13.442;2022-11-20T09:06:31;26.15;;;11.85;;
43626;SDS011;29217;52.586;13.442;2022-11-20T09:08:57;29.00;;;13.40;;
43626;SDS011;29217;52.586;13.442;2022-11-20T09:11:23;21.80;;;11.07;;
43626;SDS011;29217;52.586;13.442;2022-11-20T09:13:49;21.88;;;10.85;;
43626;SDS011;29217;52.586;13.442;2022-11-20T09:16:15;26.52;;;11.30;;
43626;SDS011;29217;52.586;13.442;2022-11-20T09:18:41;22.90;;;11.23;;
43626;SDS011;29217;52.586;13.442;2022-11-20T09:21:11;24.73;;;11.20;;
43626;SDS011;29217;52.586;13.442;2022-11-20T09:23:38;30.75;;;11.85;;
43626;SDS011;29217;52.586;13.442;2022-11-20T09:26:05;20.65;;;10.07;;
43626;SDS011;29217;52.586;13.442;2022-11-20T09:28:31;49.38;;;20.90;;
43626;SDS011;29217;52.586;13.442;2022-11-20T09:30:57;49.45;;;21.05;;
43626;SDS011;29217;52.586;13.442;2022-11-20T09:33:23;35.08;;;14.85;;
43626;SDS011;29217;52.586;13.442;2022-11-20T09:35:49;35.85;;;16.63;;
43626;SDS011;29217;52.586;13.442;2022-11-20T09:38:15;32.00;;;13.70;;
43626;SDS011;29217;52.586;13.442;2022-11-20T09:40:57;28.88;;;13.63;;
43626;SDS011;29217;52.586;13.442;2022-11-20T09:48:47;35.28;;;16.30;;
43626;SDS011;29217;52.586;13.442;2022-11-20T09:51:23;38.58;;;15.90;;
43626;SDS011;29217;52.586;13.442;2022-11-20T09:53:56;31.58;;;15.40;;
43626;SDS011;29217;52.586;13.442;2022-11-20T09:56:25;33.83;;;16.65;;
43626;SDS011;29217;52.586;13.442;2022-11-20T09:58:52;26.92;;;11.05;;
43626;SDS011;29217;52.586;13.442;2022-11-20T10:01:20;43.50;;;22.52;;
43626;SDS011;29217;52.586;13.442;2022-11-20T10:03:57;32.63;;;18.02;;
43626;SDS011;29217;52.586;13.442;2022-11-20T10:06:28;21.60;;;9.90;;
43626;SDS011;29217;52.586;13.442;2022-11-20T10:19:27;23.67;;;10.15;;
43626;SDS011;29217;52.586;13.442;2022-11-20T10:24:42;20.25;;;10.10;;
43626;SDS011;29217;52.586;13.442;2022-11-20T10:29:59;25.05;;;11.02;;
43626;SDS011;29217;52.586;13.442;2022-11-20T10:32:39;25.40;;;14.10;;
43626;SDS011;29217;52.586;13.442;2022-11-20T10:37:35;21.83;;;9.77;;
43626;SDS011;29217;52.586;13.442;2022-11-20T10:43:01;19.42;;;9.25;;
43626;SDS011;29217;52.586;13.442;2022-11-20T10:48:04;22.85;;;10.50;;
43626;SDS011;29217;52.586;13.442;2022-11-20T10:50:36;18.08;;;8.98;;
43626;SDS011;29217;52.586;13.442;2022-11-20T10:53:07;20.10;;;9.68;;
43626;SDS011;29217;52.586;13.442;2022-11-20T10:55:44;20.05;;;8.82;;
43626;SDS011;29217;52.586;13.442;2022-11-20T10:58:14;21.05;;;10.02;;
43626;SDS011;29217;52.586;13.442;2022-11-20T11:00:42;20.15;;;9.00;;
43626;SDS011;29217;52.586;13.442;2022-11-20T11:03:20;20.45;;;10.68;;
43626;SDS011;29217;52.586;13.442;2022-11-20T11:06:07;20.40;;;10.30;;
43626;SDS011;29217;52.586;13.442;2022-11-20T11:08:36;24.20;;;10.05;;
43626;SDS011;29217;52.586;13.442;2022-11-20T11:11:28;20.33;;;9.45;;
43626;SDS011;29217;52.586;13.442;2022-11-20T11:14:03;20.23;;;10.40;;
43626;SDS011;29217;52.586;13.442;2022-11-20T11:16:32;26.25;;;11.98;;
43626;SDS011;29217;52.586;13.442;2022-11-20T11:19:11;17.15;;;9.35;;
43626;SDS011;29217;52.586;13.442;2022-11-20T11:21:37;17.27;;;8.75;;
43626;SDS011;29217;52.586;13.442;2022-11-20T11:24:14;19.50;;;9.18;;
43626;SDS011;29217;52.586;13.442;2022-11-20T11:26:41;17.25;;;9.10;;
43626;SDS011;29217;52.586;13.442;2022-11-20T11:29:17;20.00;;;9.50;;
43626;SDS011;29217;52.586;13.442;2022-11-20T11:31:46;16.98;;;8.70;;
43626;SDS011;29217;52.586;13.442;2022-11-20T11:34:15;14.20;;;7.68;;
43626;SDS011;29217;52.586;13.442;2022-11-20T11:36:41;16.17;;;8.15;;
43626;SDS011;29217;52.586;13.442;2022-11-20T11:39:14;15.15;;;8.38;;
43626;SDS011;29217;52.586;13.442;2022-11-20T11:41:41;15.90;;;8.25;;
43626;SDS011;29217;52.586;13.442;2022-11-20T11:44:20;21.10;;;8.27;;
43626;SDS011;29217;52.586;13.442;2022-11-20T11:47:28;15.77;;;8.18;;
43626;SDS011;29217;52.586;13.442;2022-11-20T11:52:45;15.55;;;8.45;;
43626;SDS011;29217;52.586;13.442;2022-11-20T11:55:14;16.42;;;7.82;;
43626;SDS011;29217;52.586;13.442;2022-11-20T11:57:43;14.15;;;7.38;;
43626;SDS011;29217;52.586;13.442;2022-11-20T12:00:13;16.63;;;8.07;;
43626;SDS011;29217;52.586;13.442;2022-11-20T12:07:54;19.38;;;8.75;;
43626;SDS011;29217;52.586;13.442;2022-11-20T12:12:55;15.55;;;8.38;;
43626;SDS011;29217;52.586;13.442;2022-11-20T12:15:28;16.20;;;8.35;;
43626;SDS011;29217;52.586;13.442;2022-11-20T12:17:55;15.10;;;7.65;;
43626;SDS011;29217;52.586;13.442;2022-11-20T12:20:35;17.38;;;7.95;;
43626;SDS011;29217;52.586;13.442;2022-11-20T12:23:09;15.73;;;8.48;;
43626;SDS011;29217;52.586;13.442;2022-11-20T12:25:37;16.63;;;8.20;;
43626;SDS011;29217;52.586;13.442;2022-11-20T12:30:39;17.35;;;8.20;;
43626;SDS011;29217;52.586;13.442;2022-11-20T12:38:41;15.10;;;7.78;;
43626;SDS011;29217;52.586;13.442;2022-11-20T12:47:24;13.13;;;7.28;;
43626;SDS011;29217;52.586;13.442;2022-11-20T12:49:59;11.57;;;6.55;;
43626;SDS011;29217;52.586;13.442;2022-11-20T13:00:28;16.77;;;7.32;;
43626;SDS011;29217;52.586;13.442;2022-11-20T13:03:06;17.90;;;7.53;;
43626;SDS011;29217;52.586;13.442;2022-11-20T13:08:23;10.88;;;6.35;;
43626;SDS011;29217;52.586;13.442;2022-11-20T13:13:36;12.38;;;6.20;;
43626;SDS011;29217;52.586;13.442;2022-11-20T13:16:10;12.07;;;6.50;;
43626;SDS011;29217;52.586;13.442;2022-11-20T13:18:39;12.50;;;6.38;;
43626;SDS011;29217;52.586;13.442;2022-11-20T13:21:14;11.73;;;5.90;;
43626;SDS011;29217;52.586;13.442;2022-11-20T13:23:40;12.15;;;6.20;;
43626;SDS011;29217;52.586;13.442;2022-11-20T13:26:17;10.90;;;5.70;;
43626;SDS011;29217;52.586;13.442;2022-11-20T13:31:46;10.13;;;5.50;;
43626;SDS011;29217;52.586;13.442;2022-11-20T13:34:20;10.90;;;5.53;;
43626;SDS011;29217;52.586;13.442;2022-11-20T13:36:52;10.98;;;6.30;;
43626;SDS011;29217;52.586;13.442;2022-11-20T13:39:27;11.73;;;6.47;;
43626;SDS011;29217;52.586;13.442;2022-11-20T13:41:55;13.20;;;7.15;;
43626;SDS011;29217;52.586;13.442;2022-11-20T13:44:27;12.55;;;6.55;;
43626;SDS011;29217;52.586;13.442;2022-11-20T13:46:54;12.48;;;6.10;;
43626;SDS011;29217;52.586;13.442;2022-11-20T13:51:49;12.45;;;6.78;;
43626;SDS011;29217;52.586;13.442;2022-11-20T13:56:53;15.25;;;6.70;;
43626;SDS011;29217;52.586;13.442;2022-11-20T14:01:46;13.48;;;7.55;;
43626;SDS011;29217;52.586;13.442;2022-11-20T14:04:18;12.20;;;6.07;;
43626;SDS011;29217;52.586;13.442;2022-11-20T14:06:45;14.75;;;7.50;;
43626;SDS011;29217;52.586;13.442;2022-11-20T14:09:26;14.43;;;7.55;;
43626;SDS011;29217;52.586;13.442;2022-11-20T14:11:52;13.73;;;7.10;;
43626;SDS011;29217;52.586;13.442;2022-11-20T14:14:21;12.50;;;6.05;;
43626;SDS011;29217;52.586;13.442;2022-11-20T14:16:51;12.90;;;7.13;;
43626;SDS011;29217;52.586;13.442;2022-11-20T14:21:52;16.30;;;7.60;;
43626;SDS011;29217;52.586;13.442;2022-11-20T14:24:19;18.73;;;8.15;;
43626;SDS011;29217;52.586;13.442;2022-11-20T14:26:46;14.55;;;7.05;;
43626;SDS011;29217;52.586;13.442;2022-11-20T14:29:16;14.27;;;7.95;;
43626;SDS011;29217;52.586;13.442;2022-11-20T14:31:43;17.10;;;7.28;;
43626;SDS011;29217;52.586;13.442;2022-11-20T14:34:14;15.57;;;7.75;;
43626;SDS011;29217;52.586;13.442;2022-11-20T14:36:41;15.38;;;7.38;;
43626;SDS011;29217;52.586;13.442;2022-11-20T14:39:11;14.50;;;6.80;;
43626;SDS011;29217;52.586;13.442;2022-11-20T14:41:49;14.00;;;7.18;;
43626;SDS011;29217;52.586;13.442;2022-11-20T14:44:15;13.73;;;7.38;;
43626;SDS011;29217;52.586;13.442;2022-11-20T14:46:41;15.23;;;6.22;;
43626;SDS011;29217;52.586;13.442;2022-11-20T14:49:09;16.80;;;6.53;;
43626;SDS011;29217;52.586;13.442;2022-11-20T14:51:38;13.05;;;6.97;;
43626;SDS011;29217;52.586;13.442;2022-11-20T14:54:14;13.98;;;7.10;;
43626;SDS011;29217;52.586;13.442;2022-11-20T14:56:40;16.90;;;7.88;;
43626;SDS011;29217;52.586;13.442;2022-11-20T14:59:07;20.27;;;7.10;;
43626;SDS011;29217;52.586;13.442;2022-11-20T15:01:33;15.75;;;7.43;;
43626;SDS011;29217;52.586;13.442;2022-11-20T15:06:32;12.70;;;6.28;;
43626;SDS011;29217;52.586;13.442;2022-11-20T15:08:58;13.75;;;6.72;;
43626;SDS011;29217;52.586;13.442;2022-11-20T15:11:30;14.65;;;7.10;;
43626;SDS011;29217;52.586;13.442;2022-11-20T15:13:56;19.13;;;7.68;;
43626;SDS011;29217;52.586;13.442;2022-11-20T15:16:23;15.10;;;7.32;;
43626;SDS011;29217;52.586;13.442;2022-11-20T15:18:49;12.70;;;6.88;;
43626;SDS011;29217;52.586;13.442;2022-11-20T15:21:17;15.55;;;7.95;;
43626;SDS011;29217;52.586;13.442;2022-11-20T15:23:43;14.75;;;7.38;;
43626;SDS011;29217;52.586;13.442;2022-11-20T15:26:10;18.20;;;9.10;;
43626;SDS011;29217;52.586;13.442;2022-11-20T15:28:39;12.70;;;7.57;;
43626;SDS011;29217;52.586;13.442;2022-11-20T15:31:05;12.85;;;6.50;;
43626;SDS011;29217;52.586;13.442;2022-11-20T15:33:32;12.63;;;6.60;;
43626;SDS011;29217;52.586;13.442;2022-11-20T15:35:58;12.70;;;6.88;;
43626;SDS011;29217;52.586;13.442;2022-11-20T15:38:24;12.35;;;6.72;;
43626;SDS011;29217;52.586;13.442;2022-11-20T15:40:50;17.30;;;8.10;;
43626;SDS011;29217;52.586;13.442;2022-11-20T15:43:16;14.02;;;7.07;;
43626;SDS011;29217;52.586;13.442;2022-11-20T15:45:43;10.95;;;6.32;;
43626;SDS011;29217;52.586;13.442;2022-11-20T15:48:19;16.50;;;7.45;;
43626;SDS011;29217;52.586;13.442;2022-11-20T15:50:51;13.10;;;7.32;;